Time;durP1;ratioP1;P1;durP2;ratioP2;P2;SDS_P1;SDS_P2;PMS_P1;PMS_P2;Temp;Humidity;BMP_temperature;BMP_pressure;BME280_temperature;BME280_humidity;BME280_pressure;Samples;Min_cycle;Max_cycle;Signal;HPM_P1;HPM_P2
2023/01/17 00:02:08;;;;;;;14.45;8.65;;;;;;;;;;5064729;28;20051;-81
2023/01/17 00:10:07;;;;;;;11.50;7.28;;;;;;;;;;5075737;28;20415;-80
2023/01/17 00:12:34;;;;;;;8.65;5.45;;;;;;;;;;5061583;28;20462;-81
2023/01/17 00:15:00;;;;;;;10.48;6.80;;;;;;;;;;5068055;28;20709;-81
2023/01/17 00:17:27;;;;;;;11.63;7.70;;;;;;;;;;5090793;28;20028;-81
2023/01/17 00:26:02;;;;;;;10.38;5.72;;;;;;;;;;5077739;28;20109;-82
2023/01/17 01:44:02;;;;;;;;;;;;;;;;;;;;;
2023/01/17 02:02:38;;;;;;;;;;;;;;;;;;;;;
2023/01/17 02:08:50;;;;;;;;;;;;;;;;;;;;;
2023/01/17 02:16:49;;;;;;;;;;;;;;;;;;;;;
2023/01/17 02:32:23;;;;;;;18.33;13.50;;;;;;;;;;5012974;28;20464;-81
2023/01/17 02:35:42;;;;;;;84.32;45.25;;;;;;;;;;4986334;28;20049;-80
2023/01/17 02:54:28;;;;;;;;;;;;;;;;;;;;;
2023/01/17 03:21:17;;;;;;;;;;;;;;;;;;;;;
2023/01/17 03:26:46;;;;;;;16.38;10.52;;;;;;;;;;5157102;22;20803;-81
2023/01/17 03:32:46;;;;;;;8.27;4.35;;;;;;;;;;5044607;28;20032;-81
2023/01/17 03:35:40;;;;;;;;;;;;;;;;;;;;;
2023/01/17 03:38:49;;;;;;;;;;;;;;;;;;;;;
2023/01/17 03:41:59;;;;;;;;;;;;;;;;;;;;;
2023/01/17 03:47:10;;;;;;;11.68;6.28;;;;;;;;;;5101516;28;20035;-80
2023/01/17 03:49:36;;;;;;;11.32;6.35;;;;;;;;;;5085141;28;20375;-80
2023/01/17 03:52:03;;;;;;;17.88;7.75;;;;;;;;;;5082655;28;20134;-80
2023/01/17 03:54:29;;;;;;;17.65;9.85;;;;;;;;;;5107489;28;20085;-80
2023/01/17 03:56:55;;;;;;;15.20;8.25;;;;;;;;;;5101722;28;20816;-80
2023/01/17 03:59:21;;;;;;;12.43;6.78;;;;;;;;;;5107380;28;20110;-80
2023/01/17 04:01:47;;;;;;;14.10;8.05;;;;;;;;;;5097461;28;20064;-81
2023/01/17 04:04:14;;;;;;;13.88;7.03;;;;;;;;;;5110219;28;20032;-80
2023/01/17 04:06:40;;;;;;;11.38;6.50;;;;;;;;;;5103417;28;20073;-81
2023/01/17 04:09:06;;;;;;;10.45;6.45;;;;;;;;;;5109621;28;20066;-81
2023/01/17 04:11:32;;;;;;;7.97;4.68;;;;;;;;;;5093457;28;20122;-81
2023/01/17 04:13:58;;;;;;;8.75;3.58;;;;;;;;;;5106010;28;20055;-81
2023/01/17 04:16:27;;;;;;;9.00;4.65;;;;;;;;;;5102936;28;20031;-81
2023/01/17 04:18:54;;;;;;;7.82;4.75;;;;;;;;;;5092495;28;20033;-81
2023/01/17 04:21:20;;;;;;;8.23;4.03;;;;;;;;;;5103207;28;20039;-81
2023/01/17 04:23:46;;;;;;;7.43;4.68;;;;;;;;;;5090992;28;20118;-80
2023/01/17 04:26:12;;;;;;;10.77;6.60;;;;;;;;;;5106061;28;20028;-81
2023/01/17 04:28:38;;;;;;;11.30;4.82;;;;;;;;;;5105923;28;20031;-82
2023/01/17 04:31:05;;;;;;;9.35;5.85;;;;;;;;;;5103639;28;20107;-80
2023/01/17 04:33:31;;;;;;;7.63;4.03;;;;;;;;;;5091751;28;20038;-80
2023/01/17 04:35:57;;;;;;;5.97;3.08;;;;;;;;;;5105378;28;20040;-80
2023/01/17 04:38:23;;;;;;;11.77;4.88;;;;;;;;;;5105653;28;20371;-80
2023/01/17 04:40:49;;;;;;;9.95;5.15;;;;;;;;;;5104012;28;20465;-80
2023/01/17 04:43:15;;;;;;;9.13;5.65;;;;;;;;;;5077754;28;20043;-79
2023/01/17 04:45:42;;;;;;;10.90;5.28;;;;;;;;;;5081357;28;20088;-80
2023/01/17 04:48:11;;;;;;;12.73;6.78;;;;;;;;;;5083109;28;20035;-80
2023/01/17 04:50:37;;;;;;;11.68;7.63;;;;;;;;;;5097009;28;20028;-80
2023/01/17 04:53:03;;;;;;;13.98;7.00;;;;;;;;;;5101002;28;20031;-80
2023/01/17 04:55:29;;;;;;;13.35;7.05;;;;;;;;;;5098192;28;20360;-80
2023/01/17 04:57:55;;;;;;;11.52;6.10;;;;;;;;;;5101425;28;20035;-80
2023/01/17 05:00:21;;;;;;;12.32;7.53;;;;;;;;;;5089410;28;20956;-80
2023/01/17 05:02:47;;;;;;;11.13;6.05;;;;;;;;;;5104426;28;20052;-80
2023/01/17 05:05:14;;;;;;;14.27;6.38;;;;;;;;;;5099456;28;20036;-80
2023/01/17 05:07:40;;;;;;;15.88;6.88;;;;;;;;;;5099590;28;20043;-80
2023/01/17 05:10:06;;;;;;;9.73;5.65;;;;;;;;;;5105981;28;20106;-80
2023/01/17 05:12:32;;;;;;;16.27;8.43;;;;;;;;;;5109505;28;20046;-80
2023/01/17 05:14:58;;;;;;;13.48;7.10;;;;;;;;;;5088265;28;20032;-81
2023/01/17 05:17:24;;;;;;;14.48;6.95;;;;;;;;;;5082117;28;20032;-81
2023/01/17 05:19:51;;;;;;;13.98;6.93;;;;;;;;;;5086090;28;20398;-81
2023/01/17 05:22:17;;;;;;;11.65;6.07;;;;;;;;;;5091584;28;20028;-80
2023/01/17 05:24:44;;;;;;;11.98;7.15;;;;;;;;;;5102803;28;20034;-80
2023/01/17 05:27:11;;;;;;;15.55;8.95;;;;;;;;;;5108210;28;20054;-81
2023/01/17 05:29:37;;;;;;;15.40;8.30;;;;;;;;;;5101984;28;20032;-81
2023/01/17 05:32:03;;;;;;;11.93;6.63;;;;;;;;;;5087496;28;20024;-81
2023/01/17 05:34:29;;;;;;;14.23;9.00;;;;;;;;;;5098794;28;20467;-81
2023/01/17 05:36:55;;;;;;;12.23;8.15;;;;;;;;;;5106457;28;20231;-81
2023/01/17 05:39:21;;;;;;;10.02;6.45;;;;;;;;;;5089251;28;20046;-81
2023/01/17 05:41:47;;;;;;;10.65;6.75;;;;;;;;;;5099511;28;20046;-81
2023/01/17 05:44:16;;;;;;;15.25;9.27;;;;;;;;;;5108285;28;20031;-81
2023/01/17 05:46:42;;;;;;;15.38;9.05;;;;;;;;;;5108643;28;20044;-81
2023/01/17 05:49:08;;;;;;;16.20;9.93;;;;;;;;;;5088398;28;20035;-81
2023/01/17 05:51:36;;;;;;;15.88;10.77;;;;;;;;;;5097349;28;20074;-81
2023/01/17 05:54:03;;;;;;;19.75;10.70;;;;;;;;;;5103749;28;20032;-81
2023/01/17 05:56:29;;;;;;;16.70;9.27;;;;;;;;;;5113479;28;20031;-80
2023/01/17 05:58:55;;;;;;;20.98;10.70;;;;;;;;;;5107487;28;20038;-81
2023/01/17 06:01:21;;;;;;;25.52;12.52;;;;;;;;;;5106915;28;20028;-81
2023/01/17 06:03:47;;;;;;;17.55;8.40;;;;;;;;;;5091719;28;20089;-81
2023/01/17 06:06:13;;;;;;;18.75;10.25;;;;;;;;;;5108407;28;20031;-80
2023/01/17 06:08:39;;;;;;;18.45;10.43;;;;;;;;;;5094941;28;20034;-80
2023/01/17 06:11:05;;;;;;;19.15;11.00;;;;;;;;;;5108450;28;20036;-81
2023/01/17 06:13:31;;;;;;;17.55;10.73;;;;;;;;;;5085305;28;20159;-82
2023/01/17 06:16:01;;;;;;;17.70;9.05;;;;;;;;;;5102604;28;20032;-81
2023/01/17 06:18:27;;;;;;;13.60;6.85;;;;;;;;;;5093480;28;20059;-81
2023/01/17 06:20:54;;;;;;;17.55;7.18;;;;;;;;;;5100613;28;20100;-80
2023/01/17 06:23:20;;;;;;;12.35;5.90;;;;;;;;;;5090406;28;20031;-81
2023/01/17 06:25:46;;;;;;;16.98;8.88;;;;;;;;;;5089377;28;20046;-81
2023/01/17 06:28:14;;;;;;;15.95;8.20;;;;;;;;;;5104073;28;20034;-81
2023/01/17 06:30:40;;;;;;;28.95;13.25;;;;;;;;;;5110590;28;20106;-82
2023/01/17 06:33:06;;;;;;;27.40;17.08;;;;;;;;;;5098400;28;20043;-82
2023/01/17 06:35:32;;;;;;;33.85;22.27;;;;;;;;;;5083543;28;20073;-81
2023/01/17 06:37:59;;;;;;;39.85;24.25;;;;;;;;;;5091600;28;20032;-83
2023/01/17 06:40:25;;;;;;;31.40;19.65;;;;;;;;;;5084756;28;20073;-81
2023/01/17 06:42:51;;;;;;;26.92;15.60;;;;;;;;;;5100056;28;20485;-81
2023/01/17 06:45:18;;;;;;;45.33;26.30;;;;;;;;;;5104363;28;20105;-81
2023/01/17 06:47:44;;;;;;;28.23;17.98;;;;;;;;;;5101550;28;20450;-82
2023/01/17 06:50:12;;;;;;;26.80;14.73;;;;;;;;;;5104829;28;20039;-82
2023/01/17 06:52:38;;;;;;;30.08;16.73;;;;;;;;;;5108312;28;20092;-82
2023/01/17 06:55:05;;;;;;;27.92;14.23;;;;;;;;;;5110662;28;20110;-82
2023/01/17 06:57:31;;;;;;;24.92;16.05;;;;;;;;;;5106058;28;20041;-82
2023/01/17 06:59:57;;;;;;;19.73;11.45;;;;;;;;;;5104206;28;20031;-82
2023/01/17 07:02:23;;;;;;;23.20;11.27;;;;;;;;;;5107222;28;20489;-81
2023/01/17 07:04:49;;;;;;;19.17;11.38;;;;;;;;;;5104051;28;20035;-81
2023/01/17 07:07:15;;;;;;;21.70;11.02;;;;;;;;;;5107582;28;20028;-81
2023/01/17 07:09:41;;;;;;;22.85;12.38;;;;;;;;;;5101420;28;20032;-80
2023/01/17 07:12:07;;;;;;;41.35;25.23;;;;;;;;;;5085326;28;20028;-82
2023/01/17 07:14:33;;;;;;;36.58;20.90;;;;;;;;;;5092527;28;20089;-81
2023/01/17 07:16:59;;;;;;;25.20;15.38;;;;;;;;;;5106565;28;20032;-81
2023/01/17 07:19:25;;;;;;;18.88;11.13;;;;;;;;;;5105462;27;20106;-81
2023/01/17 07:21:51;;;;;;;12.75;6.63;;;;;;;;;;5115223;27;20386;-82
2023/01/17 07:24:18;;;;;;;17.98;10.48;;;;;;;;;;5100908;28;20092;-82
2023/01/17 07:26:47;;;;;;;26.02;14.93;;;;;;;;;;5107220;28;20470;-82
2023/01/17 07:29:13;;;;;;;21.38;11.88;;;;;;;;;;5103033;28;20419;-82
2023/01/17 07:31:39;;;;;;;21.98;14.05;;;;;;;;;;5077284;28;20068;-81
2023/01/17 07:34:05;;;;;;;24.55;13.68;;;;;;;;;;5089511;28;20032;-82
2023/01/17 07:36:31;;;;;;;26.17;14.07;;;;;;;;;;5106634;27;20489;-82
2023/01/17 07:38:57;;;;;;;25.83;15.27;;;;;;;;;;5088477;28;20122;-82
2023/01/17 07:41:23;;;;;;;29.00;18.27;;;;;;;;;;5109117;28;20067;-81
2023/01/17 07:43:49;;;;;;;29.27;17.58;;;;;;;;;;5081851;27;20114;-80
2023/01/17 07:46:16;;;;;;;26.38;16.92;;;;;;;;;;5082920;28;20390;-81
2023/01/17 07:48:42;;;;;;;27.42;17.20;;;;;;;;;;5096337;28;20031;-80
2023/01/17 07:51:08;;;;;;;24.27;16.90;;;;;;;;;;5083936;28;20051;-81
2023/01/17 07:53:34;;;;;;;28.48;18.73;;;;;;;;;;5083024;28;20039;-81
2023/01/17 07:56:01;;;;;;;49.08;30.38;;;;;;;;;;5076461;28;20044;-81
2023/01/17 07:58:27;;;;;;;35.00;21.38;;;;;;;;;;5081113;28;20123;-80
2023/01/17 08:00:53;;;;;;;43.88;25.95;;;;;;;;;;5077620;28;20470;-80
2023/01/17 08:03:19;;;;;;;45.08;27.08;;;;;;;;;;5073098;28;20070;-80
2023/01/17 08:05:53;;;;;;;50.25;30.70;;;;;;;;;;5072562;28;20036;-80
2023/01/17 08:08:19;;;;;;;53.35;29.98;;;;;;;;;;5078630;28;20089;-80
2023/01/17 08:10:45;;;;;;;57.70;38.17;;;;;;;;;;5080739;28;20040;-80
2023/01/17 08:13:11;;;;;;;36.53;22.88;;;;;;;;;;5093066;28;20031;-80
2023/01/17 08:15:37;;;;;;;29.98;18.98;;;;;;;;;;5081252;28;20812;-80
2023/01/17 08:18:03;;;;;;;30.65;19.13;;;;;;;;;;5073979;28;20032;-80
2023/01/17 08:20:29;;;;;;;39.75;24.67;;;;;;;;;;5077368;28;20501;-80
2023/01/17 08:22:56;;;;;;;37.97;22.92;;;;;;;;;;5076685;28;20037;-79
2023/01/17 08:25:23;;;;;;;47.58;27.17;;;;;;;;;;5081597;28;20040;-79
2023/01/17 08:27:49;;;;;;;33.85;20.50;;;;;;;;;;5079018;28;20028;-80
2023/01/17 08:30:15;;;;;;;26.92;16.70;;;;;;;;;;5082132;28;20060;-79
2023/01/17 08:32:41;;;;;;;34.08;22.23;;;;;;;;;;5082592;28;20107;-80
2023/01/17 08:35:08;;;;;;;31.30;18.02;;;;;;;;;;5074054;28;20432;-80
2023/01/17 08:37:36;;;;;;;21.95;14.93;;;;;;;;;;5078239;28;20122;-80
2023/01/17 08:40:03;;;;;;;32.38;19.52;;;;;;;;;;5085777;28;20433;-80
2023/01/17 08:42:29;;;;;;;40.22;21.48;;;;;;;;;;5084574;28;20638;-79
2023/01/17 08:44:55;;;;;;;28.83;17.48;;;;;;;;;;5086737;28;20052;-80
2023/01/17 08:47:21;;;;;;;29.60;17.58;;;;;;;;;;5085970;28;20035;-80
2023/01/17 08:49:47;;;;;;;30.20;17.63;;;;;;;;;;5089020;28;20394;-80
2023/01/17 08:52:14;;;;;;;28.85;16.85;;;;;;;;;;5103954;28;20071;-79
2023/01/17 08:54:40;;;;;;;28.60;19.50;;;;;;;;;;5100060;28;20085;-80
2023/01/17 08:57:06;;;;;;;41.03;23.65;;;;;;;;;;5100605;28;20036;-80
2023/01/17 08:59:32;;;;;;;35.35;21.85;;;;;;;;;;5101247;28;20028;-80
2023/01/17 09:02:13;;;;;;;32.63;22.23;;;;;;;;;;5096070;28;20421;-80
2023/01/17 09:04:39;;;;;;;52.50;33.85;;;;;;;;;;5103276;28;20051;-80
2023/01/17 09:07:06;;;;;;;37.45;24.90;;;;;;;;;;5090837;28;20027;-80
2023/01/17 09:09:32;;;;;;;35.95;22.77;;;;;;;;;;5104097;28;20032;-80
2023/01/17 09:11:58;;;;;;;36.25;24.77;;;;;;;;;;5096337;28;20035;-80
2023/01/17 09:14:24;;;;;;;32.50;22.17;;;;;;;;;;5098229;28;20070;-80
2023/01/17 09:16:50;;;;;;;53.95;32.85;;;;;;;;;;5097315;27;20075;-80
2023/01/17 09:19:16;;;;;;;42.75;27.23;;;;;;;;;;5089538;28;20118;-82
2023/01/17 09:21:42;;;;;;;34.72;22.98;;;;;;;;;;5092964;28;20039;-80
2023/01/17 09:24:08;;;;;;;23.33;15.10;;;;;;;;;;5095430;28;20102;-80
2023/01/17 09:26:34;;;;;;;24.95;17.48;;;;;;;;;;5083386;28;20042;-80
2023/01/17 09:29:00;;;;;;;28.98;17.23;;;;;;;;;;5086393;28;20031;-81
2023/01/17 09:31:27;;;;;;;26.50;18.73;;;;;;;;;;5101774;28;20031;-81
2023/01/17 09:33:53;;;;;;;36.55;22.08;;;;;;;;;;5091388;28;20019;-80
2023/01/17 09:36:20;;;;;;;35.08;22.45;;;;;;;;;;5079260;28;20036;-80
2023/01/17 09:38:46;;;;;;;34.50;22.88;;;;;;;;;;5086679;28;20395;-80
2023/01/17 09:41:27;;;;;;;35.10;22.02;;;;;;;;;;5081064;28;20039;-80
2023/01/17 09:43:53;;;;;;;26.85;15.90;;;;;;;;;;5082920;28;20028;-80
2023/01/17 09:46:22;;;;;;;32.53;19.20;;;;;;;;;;5097199;28;20051;-81
2023/01/17 09:48:55;;;;;;;28.08;18.67;;;;;;;;;;5082931;28;20122;-80
2023/01/17 09:51:23;;;;;;;33.85;20.88;;;;;;;;;;5081915;28;20028;-80
2023/01/17 09:53:50;;;;;;;37.60;20.90;;;;;;;;;;5084025;28;20045;-80
2023/01/17 09:56:19;;;;;;;22.85;13.30;;;;;;;;;;5101910;28;20028;-81
2023/01/17 09:58:51;;;;;;;29.45;17.67;;;;;;;;;;5087399;28;20538;-80
2023/01/17 10:01:17;;;;;;;26.27;15.90;;;;;;;;;;5087866;28;20479;-81
2023/01/17 10:03:53;;;;;;;29.30;17.63;;;;;;;;;;5095249;28;20129;-81
2023/01/17 10:06:31;;;;;;;28.88;17.42;;;;;;;;;;5095752;28;20032;-81
2023/01/17 10:09:29;;;;;;;42.20;23.88;;;;;;;;;;5086395;28;20367;-81
2023/01/17 10:11:55;;;;;;;38.80;23.40;;;;;;;;;;5047148;28;20192;-81
2023/01/17 10:14:21;;;;;;;49.33;30.67;;;;;;;;;;5104624;28;20039;-81
2023/01/17 10:16:47;;;;;;;39.33;22.65;;;;;;;;;;5086749;28;20111;-81
2023/01/17 10:19:23;;;;;;;32.08;17.77;;;;;;;;;;5095648;28;20485;-81
2023/01/17 10:22:09;;;;;;;29.23;17.95;;;;;;;;;;5086837;28;20815;-80
2023/01/17 10:24:38;;;;;;;29.35;15.40;;;;;;;;;;5057713;28;20048;-81
2023/01/17 10:27:13;;;;;;;25.05;12.52;;;;;;;;;;5086589;28;20065;-80
2023/01/17 10:29:40;;;;;;;27.33;13.52;;;;;;;;;;5097146;28;20040;-80
2023/01/17 10:32:08;;;;;;;20.27;11.23;;;;;;;;;;5079853;28;20055;-80
2023/01/17 10:34:45;;;;;;;27.98;16.17;;;;;;;;;;5091808;28;20043;-80
2023/01/17 10:37:24;;;;;;;25.75;14.10;;;;;;;;;;5097327;28;20039;-80
2023/01/17 10:39:51;;;;;;;23.58;11.65;;;;;;;;;;5110134;28;20098;-80
2023/01/17 10:42:21;;;;;;;19.48;9.98;;;;;;;;;;5088557;28;20700;-80
2023/01/17 10:44:55;;;;;;;23.50;11.60;;;;;;;;;;5085620;28;20058;-80
2023/01/17 10:47:22;;;;;;;29.50;16.45;;;;;;;;;;5089825;28;20061;-82
2023/01/17 10:49:50;;;;;;;41.58;22.75;;;;;;;;;;5096421;28;20590;-80
2023/01/17 10:52:35;;;;;;;28.40;17.25;;;;;;;;;;5099760;27;20055;-80
2023/01/17 10:55:03;;;;;;;27.73;17.33;;;;;;;;;;5101182;28;20047;-81
2023/01/17 10:57:33;;;;;;;50.10;29.98;;;;;;;;;;5107012;28;20398;-80
2023/01/17 11:00:00;;;;;;;35.67;23.08;;;;;;;;;;5082100;28;20035;-80
2023/01/17 11:02:41;;;;;;;33.35;23.45;;;;;;;;;;5104838;28;20115;-80
2023/01/17 11:05:28;;;;;;;30.83;17.33;;;;;;;;;;5101346;28;20035;-80
2023/01/17 11:07:58;;;;;;;44.10;26.77;;;;;;;;;;5114772;27;20637;-80
2023/01/17 11:10:45;;;;;;;35.75;21.80;;;;;;;;;;5098897;28;20036;-80
2023/01/17 11:13:29;;;;;;;32.55;19.05;;;;;;;;;;5082647;28;20118;-81
2023/01/17 11:16:01;;;;;;;26.63;16.77;;;;;;;;;;5085795;28;20046;-80
2023/01/17 11:18:28;;;;;;;37.28;24.88;;;;;;;;;;5097602;28;20047;-81
2023/01/17 11:21:08;;;;;;;50.95;31.40;;;;;;;;;;5093549;28;20039;-80
2023/01/17 11:23:34;;;;;;;34.65;20.55;;;;;;;;;;5102541;28;20024;-80
2023/01/17 11:26:02;;;;;;;34.97;24.50;;;;;;;;;;5080345;28;20461;-80
2023/01/17 11:28:29;;;;;;;24.75;14.93;;;;;;;;;;5096476;28;20029;-80
2023/01/17 11:30:55;;;;;;;21.30;12.20;;;;;;;;;;5101099;28;20032;-80
2023/01/17 11:33:30;;;;;;;32.90;18.70;;;;;;;;;;5088795;28;20028;-80
2023/01/17 11:35:56;;;;;;;48.72;28.15;;;;;;;;;;5086725;28;20043;-80
2023/01/17 11:38:24;;;;;;;73.93;44.75;;;;;;;;;;5104118;28;20027;-80
2023/01/17 11:40:52;;;;;;;61.50;41.78;;;;;;;;;;5082394;28;20115;-80
2023/01/17 11:43:18;;;;;;;49.85;33.85;;;;;;;;;;5103445;28;20024;-79
2023/01/17 11:45:44;;;;;;;47.15;29.95;;;;;;;;;;5086681;28;20398;-79
2023/01/17 11:48:12;;;;;;;36.55;21.42;;;;;;;;;;5081162;28;20562;-80
2023/01/17 11:50:38;;;;;;;26.02;16.05;;;;;;;;;;5084763;28;20040;-80
2023/01/17 11:53:05;;;;;;;33.30;21.13;;;;;;;;;;5103828;27;20090;-80
2023/01/17 11:55:31;;;;;;;46.92;28.92;;;;;;;;;;5078681;28;20044;-80
2023/01/17 11:57:57;;;;;;;26.48;16.25;;;;;;;;;;5079105;28;20040;-80
2023/01/17 12:00:32;;;;;;;32.65;19.02;;;;;;;;;;5082039;28;20042;-80
2023/01/17 12:02:58;;;;;;;24.33;13.63;;;;;;;;;;5075416;28;20036;-80
2023/01/17 12:05:29;;;;;;;22.20;12.15;;;;;;;;;;5075169;28;20417;-80
2023/01/17 12:08:01;;;;;;;25.58;17.48;;;;;;;;;;5080704;28;20051;-80
2023/01/17 12:10:46;;;;;;;41.10;25.98;;;;;;;;;;5081877;28;20028;-80
2023/01/17 12:16:28;;;;;;;30.38;19.38;;;;;;;;;;5089294;28;20158;-80
2023/01/17 12:19:20;;;;;;;30.00;17.70;;;;;;;;;;5086427;28;20032;-80
2023/01/17 12:21:49;;;;;;;27.67;16.98;;;;;;;;;;5044301;28;20044;-80
2023/01/17 12:24:34;;;;;;;20.00;11.05;;;;;;;;;;5074911;28;20119;-80
2023/01/17 12:27:12;;;;;;;28.70;21.38;;;;;;;;;;5080798;28;20089;-81
2023/01/17 12:29:57;;;;;;;17.35;9.98;;;;;;;;;;5078562;28;20039;-81
2023/01/17 12:32:50;;;;;;;4.82;1.80;;;;;;;;;;5081167;28;20463;-81
2023/01/17 12:35:16;;;;;;;;;;;;;;;;;;5101299;28;20052;-81
2023/01/17 12:37:43;;;;;;;6.45;3.05;;;;;;;;;;5084630;28;20361;-81
2023/01/17 12:40:09;;;;;;;2.75;1.20;;;;;;;;;;5084023;28;20040;-81
2023/01/17 12:42:39;;;;;;;7.45;4.25;;;;;;;;;;5087375;28;20386;-81
2023/01/17 12:45:09;;;;;;;13.13;8.77;;;;;;;;;;5087745;28;20734;-81
2023/01/17 12:47:39;;;;;;;11.93;7.13;;;;;;;;;;5088082;28;20545;-81
2023/01/17 12:50:09;;;;;;;8.68;4.45;;;;;;;;;;5103276;28;20389;-80
2023/01/17 12:52:35;;;;;;;9.93;6.57;;;;;;;;;;5089446;28;20039;-81
2023/01/17 12:55:04;;;;;;;10.25;7.20;;;;;;;;;;5102536;28;20406;-81
2023/01/17 12:57:37;;;;;;;11.35;5.50;;;;;;;;;;5098951;28;20028;-81
2023/01/17 13:00:03;;;;;;;17.13;9.70;;;;;;;;;;5093430;28;20038;-81
2023/01/17 13:02:43;;;;;;;25.60;15.52;;;;;;;;;;5110456;27;20063;-80
2023/01/17 13:05:09;;;;;;;23.70;15.10;;;;;;;;;;5107893;27;20076;-81
2023/01/17 13:07:42;;;;;;;28.65;17.58;;;;;;;;;;5089225;28;20505;-80
2023/01/17 13:10:25;;;;;;;14.00;8.93;;;;;;;;;;5106308;28;20126;-80
2023/01/17 13:12:53;;;;;;;19.73;12.43;;;;;;;;;;5103309;28;20390;-80
2023/01/17 13:15:22;;;;;;;22.25;12.73;;;;;;;;;;5095405;28;20141;-80
2023/01/17 13:17:50;;;;;;;16.98;9.15;;;;;;;;;;5095362;28;20028;-80
2023/01/17 13:20:21;;;;;;;21.30;10.90;;;;;;;;;;5080453;28;20042;-80
2023/01/17 13:22:48;;;;;;;11.32;5.35;;;;;;;;;;5095767;28;20023;-81
2023/01/17 13:25:14;;;;;;;13.20;6.85;;;;;;;;;;5107281;28;20036;-80
2023/01/17 13:27:59;;;;;;;18.77;11.00;;;;;;;;;;5098404;28;21018;-81
2023/01/17 13:30:42;;;;;;;31.60;17.83;;;;;;;;;;5097963;28;20036;-81
2023/01/17 13:33:34;;;;;;;26.48;14.40;;;;;;;;;;5107033;28;20077;-81
2023/01/17 13:36:15;;;;;;;19.70;10.63;;;;;;;;;;5064751;28;20105;-81
2023/01/17 13:39:00;;;;;;;20.00;11.15;;;;;;;;;;5093998;28;20517;-81
2023/01/17 13:41:45;;;;;;;28.90;17.23;;;;;;;;;;5098705;28;20039;-81
2023/01/17 13:44:23;;;;;;;21.15;12.40;;;;;;;;;;5087589;28;20043;-81
2023/01/17 13:46:56;;;;;;;27.35;16.13;;;;;;;;;;5091205;28;20051;-81
2023/01/17 13:49:32;;;;;;;24.67;18.02;;;;;;;;;;5097670;28;20074;-81
2023/01/17 13:52:04;;;;;;;25.35;14.23;;;;;;;;;;5104318;28;20020;-81
2023/01/17 13:54:31;;;;;;;17.55;13.13;;;;;;;;;;5100945;28;20399;-81
2023/01/17 13:57:28;;;;;;;29.13;17.25;;;;;;;;;;5085401;28;20012;-81
2023/01/17 13:59:58;;;;;;;21.30;14.15;;;;;;;;;;5096454;28;20050;-81
2023/01/17 14:02:33;;;;;;;18.02;13.05;;;;;;;;;;5079316;28;20123;-81
2023/01/17 14:05:20;;;;;;;24.95;16.77;;;;;;;;;;5099790;28;20485;-80
2023/01/17 14:07:54;;;;;;;24.05;13.05;;;;;;;;;;5084079;27;20122;-81
2023/01/17 14:10:26;;;;;;;13.38;8.15;;;;;;;;;;5107745;27;20073;-81
2023/01/17 14:12:52;;;;;;;14.63;8.30;;;;;;;;;;5095215;28;20031;-81
2023/01/17 14:15:23;;;;;;;20.02;11.13;;;;;;;;;;5100060;28;20067;-81
2023/01/17 14:17:50;;;;;;;24.50;12.48;;;;;;;;;;5103150;28;20857;-81
2023/01/17 14:20:16;;;;;;;18.10;9.63;;;;;;;;;;5086045;28;20055;-81
2023/01/17 14:22:53;;;;;;;16.48;8.63;;;;;;;;;;5099592;28;20093;-82
2023/01/17 14:25:21;;;;;;;12.43;6.68;;;;;;;;;;5088527;28;20068;-81
2023/01/17 14:27:47;;;;;;;11.85;4.75;;;;;;;;;;5086104;28;20896;-82
2023/01/17 14:30:16;;;;;;;16.85;8.60;;;;;;;;;;5078946;28;20024;-82
2023/01/17 14:33:00;;;;;;;13.48;6.53;;;;;;;;;;5104105;28;20032;-82
2023/01/17 14:35:31;;;;;;;5.72;2.15;;;;;;;;;;5079706;28;20470;-82
2023/01/17 14:38:00;;;;;;;7.57;2.30;;;;;;;;;;5097460;28;20134;-82
2023/01/17 14:40:29;;;;;;;8.57;3.13;;;;;;;;;;5104263;28;20104;-82
2023/01/17 14:43:10;;;;;;;10.07;4.35;;;;;;;;;;5084011;28;20036;-82
2023/01/17 14:45:37;;;;;;;6.72;2.20;;;;;;;;;;5085728;28;20047;-82
2023/01/17 14:48:12;;;;;;;7.50;3.28;;;;;;;;;;5085725;28;20047;-82
2023/01/17 14:50:40;;;;;;;14.57;6.57;;;;;;;;;;5083218;28;20500;-82
2023/01/17 14:53:07;;;;;;;10.00;4.85;;;;;;;;;;5087098;28;20049;-82
2023/01/17 14:55:33;;;;;;;11.90;6.03;;;;;;;;;;5085462;28;20055;-82
2023/01/17 14:57:59;;;;;;;12.90;6.20;;;;;;;;;;5089273;28;20036;-82
2023/01/17 15:00:28;;;;;;;11.77;6.20;;;;;;;;;;5090847;28;20038;-83
2023/01/17 15:02:54;;;;;;;8.05;3.65;;;;;;;;;;5085101;28;20478;-82
2023/01/17 15:05:21;;;;;;;7.22;3.20;;;;;;;;;;5083357;28;20059;-83
2023/01/17 15:07:51;;;;;;;10.60;4.07;;;;;;;;;;5092592;28;20110;-82
2023/01/17 15:10:19;;;;;;;13.85;6.78;;;;;;;;;;5081276;28;20119;-82
2023/01/17 15:12:45;;;;;;;17.40;10.07;;;;;;;;;;5083232;28;20036;-82
2023/01/17 15:15:28;;;;;;;24.70;13.32;;;;;;;;;;5106927;28;20035;-83
2023/01/17 15:18:13;;;;;;;20.88;10.77;;;;;;;;;;5081771;28;20540;-83
2023/01/17 15:20:40;;;;;;;23.15;12.10;;;;;;;;;;5098610;28;20104;-82
2023/01/17 15:23:10;;;;;;;16.55;8.38;;;;;;;;;;5088526;28;20126;-82
2023/01/17 15:25:37;;;;;;;19.58;10.00;;;;;;;;;;5086287;28;20028;-82
2023/01/17 15:28:04;;;;;;;24.42;12.30;;;;;;;;;;5080565;28;20024;-82
2023/01/17 15:30:30;;;;;;;20.73;11.07;;;;;;;;;;5085893;28;20036;-83
2023/01/17 15:32:56;;;;;;;19.40;8.77;;;;;;;;;;5102983;27;20057;-82
2023/01/17 15:35:23;;;;;;;18.40;6.85;;;;;;;;;;5080801;28;20036;-82
2023/01/17 15:37:53;;;;;;;17.88;6.65;;;;;;;;;;5106257;28;20031;-82
2023/01/17 15:40:21;;;;;;;12.75;4.95;;;;;;;;;;5088452;28;20031;-82
2023/01/17 15:43:00;;;;;;;13.75;5.15;;;;;;;;;;5083288;28;20043;-82
2023/01/17 15:45:30;;;;;;;22.77;11.52;;;;;;;;;;5082785;28;20052;-82
2023/01/17 15:47:58;;;;;;;20.38;11.77;;;;;;;;;;5080519;28;20552;-82
2023/01/17 15:50:30;;;;;;;19.40;9.82;;;;;;;;;;5077387;28;20025;-82
2023/01/17 15:52:56;;;;;;;23.17;13.13;;;;;;;;;;5087551;28;20035;-82
2023/01/17 15:55:27;;;;;;;30.45;20.25;;;;;;;;;;5083896;28;20458;-82
2023/01/17 15:57:53;;;;;;;29.08;17.50;;;;;;;;;;5086378;28;20032;-82
2023/01/17 16:00:25;;;;;;;23.85;15.20;;;;;;;;;;5086595;28;20161;-82
2023/01/17 16:02:54;;;;;;;21.73;13.90;;;;;;;;;;5076888;28;20037;-82
2023/01/17 16:05:23;;;;;;;15.27;9.13;;;;;;;;;;5073441;28;20033;-82
2023/01/17 16:07:49;;;;;;;20.45;14.48;;;;;;;;;;5084340;28;20024;-83
2023/01/17 16:10:30;;;;;;;21.70;16.42;;;;;;;;;;5075861;28;20086;-82
2023/01/17 16:12:57;;;;;;;22.60;13.52;;;;;;;;;;5072614;28;20035;-82
2023/01/17 16:15:23;;;;;;;19.80;10.85;;;;;;;;;;5076898;28;20040;-82
2023/01/17 16:17:50;;;;;;;17.95;9.48;;;;;;;;;;5082500;28;20032;-82
2023/01/17 16:20:21;;;;;;;14.80;5.85;;;;;;;;;;5084433;28;20032;-82
2023/01/17 16:22:47;;;;;;;13.52;6.47;;;;;;;;;;5084155;28;20030;-82
2023/01/17 16:25:16;;;;;;;23.05;14.18;;;;;;;;;;5084632;28;20110;-82
2023/01/17 16:27:42;;;;;;;14.88;9.25;;;;;;;;;;5075190;28;20035;-82
2023/01/17 16:30:15;;;;;;;19.38;11.75;;;;;;;;;;5075849;28;20043;-82
2023/01/17 16:32:47;;;;;;;14.85;8.27;;;;;;;;;;5100275;28;20089;-82
2023/01/17 16:35:19;;;;;;;14.30;7.47;;;;;;;;;;5083352;28;20036;-84
2023/01/17 16:37:45;;;;;;;;;;;;;;;;;;5086893;28;20309;-82
2023/01/17 16:40:11;;;;;;;13.73;6.43;;;;;;;;;;5084270;28;20013;-83
2023/01/17 16:42:37;;;;;;;23.17;11.63;;;;;;;;;;5101227;28;20032;-83
2023/01/17 16:45:03;;;;;;;22.10;12.18;;;;;;;;;;5089242;28;20055;-83
2023/01/17 16:47:29;;;;;;;13.50;9.85;;;;;;;;;;5081330;28;20481;-83
2023/01/17 16:49:55;;;;;;;6.25;2.20;;;;;;;;;;5102208;28;20033;-82
2023/01/17 16:52:21;;;;;;;4.47;1.95;;;;;;;;;;5077637;28;20040;-82
2023/01/17 16:54:47;;;;;;;10.93;4.82;;;;;;;;;;5100578;28;20035;-82
2023/01/17 16:57:14;;;;;;;7.65;2.75;;;;;;;;;;5103292;27;20054;-82
2023/01/17 16:59:42;;;;;;;6.53;2.40;;;;;;;;;;5080267;28;20071;-82
2023/01/17 17:02:09;;;;;;;7.65;4.28;;;;;;;;;;5089908;28;20070;-82
2023/01/17 17:04:35;;;;;;;8.55;3.28;;;;;;;;;;5085777;28;20032;-82
2023/01/17 17:07:01;;;;;;;3.83;1.45;;;;;;;;;;5084197;28;20039;-82
2023/01/17 17:09:28;;;;;;;6.28;1.02;;;;;;;;;;5093001;28;20044;-82
2023/01/17 17:11:55;;;;;;;4.22;1.33;;;;;;;;;;5074449;28;20095;-82
2023/01/17 17:14:21;;;;;;;4.38;1.30;;;;;;;;;;5101853;28;20036;-83
2023/01/17 17:16:50;;;;;;;12.55;3.80;;;;;;;;;;5085152;28;20024;-82
2023/01/17 17:19:16;;;;;;;6.32;1.55;;;;;;;;;;5081410;28;20032;-82
2023/01/17 17:21:42;;;;;;;5.35;1.92;;;;;;;;;;5083995;28;20023;-82
2023/01/17 17:24:10;;;;;;;18.17;10.63;;;;;;;;;;5081625;28;21213;-82
2023/01/17 17:26:37;;;;;;;7.55;2.50;;;;;;;;;;5088094;28;20028;-82
2023/01/17 17:29:03;;;;;;;30.02;12.27;;;;;;;;;;5089136;28;20028;-82
2023/01/17 17:31:29;;;;;;;34.00;14.95;;;;;;;;;;5087999;28;20024;-82
2023/01/17 17:34:00;;;;;;;30.75;14.38;;;;;;;;;;5086074;28;20626;-82
2023/01/17 17:36:26;;;;;;;16.13;7.93;;;;;;;;;;5087949;28;20031;-82
2023/01/17 17:38:55;;;;;;;17.60;10.52;;;;;;;;;;5096664;28;20040;-83
2023/01/17 17:41:23;;;;;;;22.83;10.15;;;;;;;;;;5084872;28;20050;-82
2023/01/17 17:43:50;;;;;;;22.83;13.57;;;;;;;;;;5102188;28;20849;-83
2023/01/17 17:46:16;;;;;;;16.60;10.80;;;;;;;;;;5100648;28;20912;-83